Time;durP1;ratioP1;P1;durP2;ratioP2;P2;SDS_P1;SDS_P2;PMS_P1;PMS_P2;Temp;Humidity;BMP_temperature;BMP_pressure;BME280_temperature;BME280_humidity;BME280_pressure;Samples;Min_cycle;Max_cycle;Signal;HPM_P1;HPM_P2
2022/01/31 00:02:23;;;;;;;7.38;3.70;;;2.90;99.90;;;;;;5072064;28;20697;-76
2022/01/31 00:04:50;;;;;;;13.00;3.95;;;2.80;99.90;;;;;;5076555;28;20200;-75
2022/01/31 00:07:17;;;;;;;7.80;4.43;;;2.80;99.90;;;;;;5076735;28;20224;-75
2022/01/31 00:09:45;;;;;;;10.82;4.43;;;2.70;99.90;;;;;;5076760;28;20211;-76
2022/01/31 00:12:14;;;;;;;10.10;3.80;;;2.70;99.90;;;;;;5074014;28;20221;-76
2022/01/31 00:14:43;;;;;;;11.15;5.72;;;2.80;99.90;;;;;;5070564;28;20262;-76
2022/01/31 00:17:12;;;;;;;8.82;4.50;;;2.80;99.90;;;;;;5080512;28;20565;-76
2022/01/31 00:19:41;;;;;;;6.90;4.20;;;2.60;99.90;;;;;;5073408;28;20568;-75
2022/01/31 00:22:10;;;;;;;10.63;4.85;;;2.60;99.90;;;;;;5078241;28;20227;-75
2022/01/31 00:24:38;;;;;;;8.73;4.47;;;2.60;99.90;;;;;;5073227;28;20287;-75
2022/01/31 00:27:06;;;;;;;11.75;5.05;;;2.50;99.90;;;;;;5072674;28;20210;-75
2022/01/31 00:29:33;;;;;;;12.85;4.97;;;2.40;99.90;;;;;;5079082;28;20279;-76
2022/01/31 00:32:00;;;;;;;10.43;5.25;;;2.30;99.90;;;;;;5078918;28;20220;-75
2022/01/31 00:34:27;;;;;;;12.55;4.68;;;2.40;99.90;;;;;;5073712;28;20197;-77
2022/01/31 00:36:55;;;;;;;10.10;4.65;;;2.40;99.90;;;;;;5070194;28;20305;-75
2022/01/31 00:39:22;;;;;;;8.52;5.00;;;2.40;99.90;;;;;;5075874;28;20193;-75
2022/01/31 00:41:49;;;;;;;9.43;4.85;;;2.40;99.90;;;;;;5073416;28;20270;-75
2022/01/31 00:44:21;;;;;;;14.20;5.72;;;2.50;99.90;;;;;;5074947;28;20216;-76
2022/01/31 00:46:52;;;;;;;9.60;4.70;;;2.50;99.90;;;;;;5076166;28;20913;-75
2022/01/31 00:49:33;;;;;;;8.88;4.82;;;2.40;99.90;;;;;;5076073;28;20215;-75
2022/01/31 00:52:02;;;;;;;10.50;4.55;;;2.40;99.90;;;;;;5070845;28;20968;-74
2022/01/31 00:54:29;;;;;;;11.82;4.15;;;2.40;99.90;;;;;;5072194;28;20244;-74
2022/01/31 00:56:56;;;;;;;10.65;4.78;;;2.40;99.90;;;;;;5071553;28;20200;-75
2022/01/31 00:59:24;;;;;;;7.63;4.30;;;2.40;99.90;;;;;;5079491;28;20199;-75
2022/01/31 01:01:51;;;;;;;9.02;4.20;;;2.40;99.90;;;;;;5070520;28;20228;-76
2022/01/31 01:04:18;;;;;;;9.10;4.80;;;2.40;99.90;;;;;;5070965;28;21783;-75
2022/01/31 01:06:45;;;;;;;11.80;4.85;;;2.40;99.90;;;;;;5081979;28;20198;-74
2022/01/31 01:09:13;;;;;;;11.88;4.30;;;2.30;99.90;;;;;;5078474;28;20188;-75
2022/01/31 01:11:40;;;;;;;10.75;4.30;;;2.30;99.90;;;;;;5074606;28;20270;-75
2022/01/31 01:14:08;;;;;;;9.05;3.97;;;2.30;99.90;;;;;;5078539;28;20207;-75
2022/01/31 01:16:35;;;;;;;7.32;4.40;;;2.40;99.90;;;;;;5074562;28;20204;-74
2022/01/31 01:19:02;;;;;;;8.60;4.30;;;2.40;99.90;;;;;;5075960;28;20193;-75
2022/01/31 01:21:29;;;;;;;8.57;4.18;;;2.50;99.90;;;;;;5073834;28;20299;-77
2022/01/31 01:23:56;;;;;;;11.48;5.10;;;2.50;99.90;;;;;;5071971;28;20228;-74
2022/01/31 01:26:25;;;;;;;14.43;5.20;;;2.60;99.90;;;;;;5086658;28;20299;-74
2022/01/31 01:28:52;;;;;;;8.30;4.20;;;2.60;99.90;;;;;;5078591;28;20193;-75
2022/01/31 01:31:19;;;;;;;8.73;4.82;;;2.60;99.90;;;;;;5073343;28;20217;-75
2022/01/31 01:33:46;;;;;;;10.95;4.90;;;2.60;99.90;;;;;;5073061;28;20227;-76
2022/01/31 01:36:13;;;;;;;11.90;4.90;;;2.70;99.90;;;;;;5076165;28;20200;-74
2022/01/31 01:38:41;;;;;;;9.98;4.80;;;2.70;99.90;;;;;;5077885;28;20374;-75
2022/01/31 01:41:07;;;;;;;6.72;4.10;;;2.80;99.90;;;;;;5076872;28;21856;-75
2022/01/31 01:43:38;;;;;;;9.98;4.47;;;2.80;99.90;;;;;;5073594;28;20221;-75
2022/01/31 01:46:05;;;;;;;10.82;4.57;;;2.80;99.90;;;;;;5075079;28;20280;-74
2022/01/31 01:48:32;;;;;;;12.82;4.70;;;2.90;99.90;;;;;;5070562;28;20337;-74
2022/01/31 01:50:59;;;;;;;7.03;4.65;;;2.90;99.90;;;;;;5072179;28;20205;-75
2022/01/31 01:53:26;;;;;;;9.10;4.15;;;3.00;99.90;;;;;;5073514;28;20197;-75
2022/01/31 01:55:54;;;;;;;6.32;4.18;;;3.00;99.90;;;;;;5083254;28;20289;-74
2022/01/31 01:58:22;;;;;;;10.35;4.35;;;3.00;99.90;;;;;;5075162;28;20202;-74
2022/01/31 02:00:59;;;;;;;9.00;4.78;;;3.10;99.90;;;;;;5070933;28;20248;-74
2022/01/31 02:03:27;;;;;;;6.40;4.40;;;3.10;99.90;;;;;;5069063;28;20708;-74
2022/01/31 02:05:55;;;;;;;9.75;4.88;;;3.10;99.90;;;;;;5073995;28;20247;-74
2022/01/31 02:08:22;;;;;;;9.40;4.82;;;3.10;99.90;;;;;;5070806;28;20654;-76
2022/01/31 02:10:49;;;;;;;11.48;4.72;;;3.00;99.90;;;;;;5078271;28;21667;-75
2022/01/31 02:13:16;;;;;;;10.73;4.30;;;3.00;99.90;;;;;;5085221;28;20661;-74
2022/01/31 02:15:46;;;;;;;10.32;4.50;;;3.00;99.90;;;;;;5072601;28;20654;-75
2022/01/31 02:18:15;;;;;;;9.20;4.32;;;2.90;99.90;;;;;;5074372;28;20202;-75
2022/01/31 02:20:44;;;;;;;10.15;5.03;;;2.90;99.90;;;;;;5069829;28;20296;-74
2022/01/31 02:23:12;;;;;;;11.27;4.93;;;2.90;99.90;;;;;;5072786;28;20733;-75
2022/01/31 02:25:54;;;;;;;11.85;4.50;;;2.90;99.90;;;;;;5076220;28;20641;-74
2022/01/31 02:28:23;;;;;;;8.68;4.80;;;2.80;99.90;;;;;;5074121;28;20277;-75
2022/01/31 02:30:50;;;;;;;9.10;5.10;;;2.80;99.90;;;;;;5070898;28;20287;-75
2022/01/31 02:33:18;;;;;;;12.32;4.53;;;2.90;99.90;;;;;;5071991;28;20284;-75
2022/01/31 02:35:48;;;;;;;9.77;4.43;;;2.90;99.90;;;;;;5075345;28;20197;-75
2022/01/31 02:38:15;;;;;;;9.85;4.05;;;2.90;99.90;;;;;;5071519;28;20199;-75
2022/01/31 02:40:42;;;;;;;9.50;3.95;;;3.00;99.90;;;;;;5073655;28;20205;-75
2022/01/31 02:43:09;;;;;;;6.72;3.95;;;3.00;99.90;;;;;;5078040;28;20240;-75
2022/01/31 02:45:36;;;;;;;9.10;4.75;;;2.90;99.90;;;;;;5070068;28;20718;-75
2022/01/31 02:48:04;;;;;;;9.93;4.95;;;2.90;99.90;;;;;;5075182;28;20280;-75
2022/01/31 02:50:31;;;;;;;8.38;4.10;;;2.80;99.90;;;;;;5072896;28;20232;-74
2022/01/31 02:53:12;;;;;;;7.55;4.53;;;2.80;99.90;;;;;;5075974;28;20235;-76
2022/01/31 02:55:41;;;;;;;9.02;4.05;;;2.80;99.90;;;;;;5077532;28;20196;-75
2022/01/31 02:58:08;;;;;;;10.05;4.28;;;2.80;99.90;;;;;;5079404;28;20773;-76
2022/01/31 03:00:35;;;;;;;8.30;4.32;;;2.80;99.90;;;;;;5078074;28;20644;-76
2022/01/31 03:03:04;;;;;;;7.22;4.18;;;2.80;99.90;;;;;;5075464;28;20312;-75
2022/01/31 03:05:31;;;;;;;8.70;4.55;;;2.80;99.90;;;;;;5072970;28;20221;-76
2022/01/31 03:07:58;;;;;;;7.13;4.18;;;2.80;99.90;;;;;;5074056;28;20285;-76
2022/01/31 03:10:27;;;;;;;13.32;4.57;;;2.90;99.90;;;;;;5082666;28;20241;-75
2022/01/31 03:12:54;;;;;;;6.55;4.68;;;2.90;99.90;;;;;;5081183;28;20222;-74
2022/01/31 03:15:21;;;;;;;9.50;3.78;;;2.90;99.90;;;;;;5073206;28;20208;-74
2022/01/31 03:17:49;;;;;;;9.75;4.90;;;2.90;99.90;;;;;;5077019;28;20197;-74
2022/01/31 03:20:18;;;;;;;5.75;3.95;;;3.00;99.90;;;;;;5075397;28;20710;-75
2022/01/31 03:22:46;;;;;;;8.65;4.10;;;3.00;99.90;;;;;;5083058;28;20235;-74
2022/01/31 03:25:13;;;;;;;9.18;4.72;;;2.90;99.90;;;;;;5082721;28;20200;-74
2022/01/31 03:27:42;;;;;;;10.35;4.28;;;2.90;99.90;;;;;;5079251;28;20261;-74
2022/01/31 03:30:12;;;;;;;9.80;4.40;;;3.00;99.90;;;;;;5073900;28;20212;-74
2022/01/31 03:32:39;;;;;;;9.00;4.50;;;2.90;99.90;;;;;;5073472;28;20235;-74
2022/01/31 03:35:07;;;;;;;9.32;4.65;;;3.00;99.90;;;;;;5079354;28;20192;-75
2022/01/31 03:37:34;;;;;;;12.13;5.00;;;2.90;99.90;;;;;;5071752;28;20202;-74
2022/01/31 03:40:01;;;;;;;7.13;4.18;;;2.90;99.90;;;;;;5077327;28;20599;-74
2022/01/31 03:42:28;;;;;;;5.47;4.55;;;2.90;99.90;;;;;;5078047;28;20213;-75
2022/01/31 03:44:57;;;;;;;6.82;4.35;;;2.90;99.90;;;;;;5072655;28;20196;-74
2022/01/31 03:47:24;;;;;;;7.93;3.83;;;2.90;99.90;;;;;;5074092;28;20204;-74
2022/01/31 03:49:51;;;;;;;6.45;3.30;;;2.90;99.90;;;;;;5077443;28;20536;-74
2022/01/31 03:52:18;;;;;;;7.53;4.03;;;2.90;99.90;;;;;;5076809;28;20216;-73
2022/01/31 03:54:46;;;;;;;9.38;4.10;;;3.00;99.90;;;;;;5077160;28;20206;-74
2022/01/31 03:57:13;;;;;;;8.98;3.95;;;3.00;99.90;;;;;;5072450;28;20193;-74
2022/01/31 03:59:40;;;;;;;5.50;3.88;;;3.10;99.90;;;;;;5074543;28;20215;-74
2022/01/31 04:02:09;;;;;;;8.82;3.92;;;3.10;99.90;;;;;;5083063;28;20221;-74
2022/01/31 04:04:36;;;;;;;6.47;3.65;;;3.20;99.90;;;;;;5073306;28;20244;-74
2022/01/31 04:07:03;;;;;;;11.25;4.00;;;3.20;99.90;;;;;;5075072;28;20200;-74
2022/01/31 04:09:30;;;;;;;5.15;3.60;;;3.30;99.90;;;;;;5078390;28;20202;-74
2022/01/31 04:11:57;;;;;;;6.07;3.10;;;3.30;99.90;;;;;;5084313;28;20219;-75
2022/01/31 04:14:26;;;;;;;6.85;3.40;;;3.40;99.90;;;;;;5075352;28;20642;-74
2022/01/31 04:16:55;;;;;;;6.80;3.30;;;3.40;99.90;;;;;;5073900;28;20201;-74
2022/01/31 04:19:25;;;;;;;7.00;3.50;;;3.40;99.90;;;;;;5076918;28;20654;-73
2022/01/31 04:21:52;;;;;;;7.25;3.58;;;3.50;99.90;;;;;;5080778;28;20580;-74
2022/01/31 04:24:23;;;;;;;5.55;3.10;;;3.50;99.90;;;;;;5071019;28;20226;-73
2022/01/31 04:26:59;;;;;;;6.68;2.97;;;3.50;99.90;;;;;;5078157;28;20298;-74
2022/01/31 04:29:28;;;;;;;7.55;3.38;;;3.50;99.90;;;;;;5071953;28;20190;-73
2022/01/31 04:31:56;;;;;;;5.93;3.72;;;3.50;99.90;;;;;;5079490;28;20210;-73
2022/01/31 04:34:26;;;;;;;8.35;3.55;;;3.50;99.90;;;;;;5081721;28;20212;-74
2022/01/31 04:36:53;;;;;;;5.90;4.13;;;3.50;99.90;;;;;;5073717;28;20226;-74
2022/01/31 04:39:20;;;;;;;6.88;3.55;;;3.50;99.90;;;;;;5076599;28;20267;-74
2022/01/31 04:41:49;;;;;;;7.50;3.58;;;3.50;99.90;;;;;;5072663;28;20215;-73
2022/01/31 04:44:16;;;;;;;7.75;3.45;;;3.50;99.90;;;;;;5070998;28;20279;-74
2022/01/31 04:46:49;;;;;;;7.93;3.50;;;3.50;99.90;;;;;;5068870;28;20231;-74
2022/01/31 04:49:16;;;;;;;5.78;3.60;;;3.50;99.90;;;;;;5080234;28;20577;-74
2022/01/31 04:51:44;;;;;;;9.00;4.35;;;3.50;99.90;;;;;;5078303;28;20215;-74
2022/01/31 04:54:11;;;;;;;10.00;5.20;;;3.50;99.90;;;;;;5078125;28;20201;-73
2022/01/31 04:56:41;;;;;;;7.65;3.95;;;3.60;99.90;;;;;;5076588;28;20203;-75
2022/01/31 04:59:08;;;;;;;7.35;3.15;;;3.60;99.90;;;;;;5073674;28;20199;-74
2022/01/31 05:01:35;;;;;;;6.93;3.65;;;3.70;99.90;;;;;;5078497;28;20584;-77
2022/01/31 05:04:02;;;;;;;4.85;3.00;;;3.70;99.90;;;;;;5076421;28;20226;-74
2022/01/31 05:06:33;;;;;;;7.65;3.95;;;3.70;99.90;;;;;;5078077;28;20296;-77
2022/01/31 05:09:03;;;;;;;9.95;3.70;;;3.80;99.90;;;;;;5076983;28;20195;-75
2022/01/31 05:11:30;;;;;;;7.30;2.88;;;3.80;99.90;;;;;;5074639;28;20225;-75
2022/01/31 05:13:57;;;;;;;6.85;3.50;;;3.90;99.90;;;;;;5075945;28;20562;-74
2022/01/31 05:16:24;;;;;;;6.32;3.60;;;3.90;99.90;;;;;;5073245;28;20195;-74
2022/01/31 05:18:51;;;;;;;7.25;3.25;;;3.90;99.90;;;;;;5077761;28;20206;-75
2022/01/31 05:21:18;;;;;;;7.72;3.35;;;4.00;99.90;;;;;;5076660;28;20230;-73
2022/01/31 05:23:47;;;;;;;8.18;3.55;;;4.00;99.90;;;;;;5077421;28;20220;-74
2022/01/31 05:26:15;;;;;;;9.38;3.30;;;4.10;99.90;;;;;;5077219;28;20869;-73
2022/01/31 05:28:42;;;;;;;7.10;3.17;;;4.20;99.90;;;;;;5074233;28;20658;-73
2022/01/31 05:31:09;;;;;;;7.95;3.47;;;4.30;99.90;;;;;;5076954;28;20219;-73
2022/01/31 05:33:36;;;;;;;8.00;4.72;;;4.30;99.90;;;;;;5074020;28;20200;-73
2022/01/31 05:36:04;;;;;;;4.55;2.42;;;4.40;99.90;;;;;;5072789;28;20278;-73
2022/01/31 05:38:34;;;;;;;7.03;3.15;;;4.50;99.90;;;;;;5072283;28;20195;-73
2022/01/31 05:41:04;;;;;;;6.43;3.88;;;4.50;99.90;;;;;;5072424;28;20221;-73
2022/01/31 05:43:33;;;;;;;5.82;3.35;;;4.50;99.90;;;;;;5071491;28;20624;-73
2022/01/31 05:46:00;;;;;;;3.90;2.90;;;4.60;99.90;;;;;;5069536;28;20200;-72
2022/01/31 05:48:27;;;;;;;7.95;3.75;;;4.60;99.90;;;;;;5076688;28;20292;-74
2022/01/31 05:50:58;;;;;;;6.88;3.45;;;4.70;99.90;;;;;;5085382;28;20309;-76
2022/01/31 05:53:25;;;;;;;6.70;4.10;;;4.80;99.90;;;;;;5075952;28;20194;-78
2022/01/31 05:55:52;;;;;;;10.07;3.65;;;4.90;99.90;;;;;;5084239;28;20231;-75
2022/01/31 05:58:19;;;;;;;4.38;3.13;;;4.90;99.90;;;;;;5088315;28;20209;-74
2022/01/31 06:00:48;;;;;;;6.63;3.60;;;4.80;99.90;;;;;;5093978;28;20224;-78
2022/01/31 06:03:15;;;;;;;4.57;2.70;;;4.90;99.90;;;;;;5089597;28;20319;-76
2022/01/31 06:05:42;;;;;;;8.73;4.20;;;4.90;99.90;;;;;;5080429;28;20252;-73
2022/01/31 06:08:09;;;;;;;6.07;3.30;;;4.90;99.90;;;;;;5080262;28;20606;-74
2022/01/31 06:10:42;;;;;;;6.93;3.63;;;4.90;99.90;;;;;;5085596;28;20209;-74
2022/01/31 06:13:09;;;;;;;6.38;3.53;;;4.90;99.90;;;;;;5087591;28;20202;-74
2022/01/31 06:15:36;;;;;;;6.13;3.03;;;4.90;99.90;;;;;;5083213;28;20200;-74
2022/01/31 06:18:04;;;;;;;8.68;3.30;;;4.90;99.90;;;;;;5076320;28;20275;-74
2022/01/31 06:20:31;;;;;;;6.43;3.72;;;4.80;99.90;;;;;;5081374;28;20286;-73
2022/01/31 06:22:58;;;;;;;8.70;3.50;;;4.70;99.90;;;;;;5078394;28;20740;-74
2022/01/31 06:25:25;;;;;;;6.45;3.40;;;4.70;99.90;;;;;;5079168;28;20223;-73
2022/01/31 06:27:53;;;;;;;6.25;3.80;;;4.60;99.90;;;;;;5079230;28;20242;-74
2022/01/31 06:30:20;;;;;;;8.82;4.43;;;4.50;99.90;;;;;;5074808;28;20266;-74
2022/01/31 06:32:47;;;;;;;6.28;3.38;;;4.50;99.90;;;;;;5085860;28;20222;-74
2022/01/31 06:35:15;;;;;;;7.03;3.10;;;4.50;99.90;;;;;;5066798;28;20208;-73
2022/01/31 06:37:42;;;;;;;8.40;3.33;;;4.50;99.90;;;;;;5080583;28;20203;-79
2022/01/31 06:40:09;;;;;;;5.45;3.10;;;4.40;99.90;;;;;;5087287;28;20209;-74
2022/01/31 06:42:36;;;;;;;8.20;3.58;;;4.30;99.90;;;;;;5084832;28;20680;-73
2022/01/31 06:45:04;;;;;;;5.88;3.38;;;4.20;99.90;;;;;;5087186;28;20223;-74
2022/01/31 06:47:32;;;;;;;7.03;3.15;;;4.20;99.90;;;;;;5088174;28;20572;-75
2022/01/31 06:49:59;;;;;;;10.88;3.72;;;4.10;99.90;;;;;;5079614;28;20592;-75
2022/01/31 06:52:32;;;;;;;8.27;3.55;;;4.00;99.90;;;;;;5073221;28;20231;-75
2022/01/31 06:55:02;;;;;;;6.80;3.22;;;4.00;99.90;;;;;;5077233;28;20211;-75
2022/01/31 06:57:33;;;;;;;6.03;3.30;;;3.90;99.90;;;;;;5077869;28;20210;-75
2022/01/31 07:00:00;;;;;;;8.50;3.95;;;3.90;99.90;;;;;;5079957;28;20649;-75
2022/01/31 07:02:27;;;;;;;7.57;3.33;;;3.90;99.90;;;;;;5070897;28;20309;-75
2022/01/31 07:04:55;;;;;;;6.43;3.95;;;3.90;99.90;;;;;;5086205;28;20225;-75
2022/01/31 07:07:22;;;;;;;6.18;2.80;;;3.90;99.90;;;;;;5079360;28;20201;-75
2022/01/31 07:09:50;;;;;;;7.07;2.80;;;3.90;99.90;;;;;;5080034;28;20199;-75
2022/01/31 07:12:17;;;;;;;5.68;4.00;;;3.80;99.90;;;;;;5079740;28;20313;-75
2022/01/31 07:14:44;;;;;;;5.28;3.28;;;3.90;99.90;;;;;;5072971;28;20608;-75
2022/01/31 07:17:11;;;;;;;10.32;3.35;;;3.80;99.90;;;;;;5086490;28;20210;-75
2022/01/31 07:19:40;;;;;;;6.30;2.90;;;3.80;99.90;;;;;;5087963;28;20197;-75
2022/01/31 07:22:11;;;;;;;6.00;2.97;;;3.90;99.90;;;;;;5077036;28;20568;-75
2022/01/31 07:24:48;;;;;;;4.43;3.03;;;3.80;99.90;;;;;;5079781;28;20223;-74
2022/01/31 07:27:16;;;;;;;4.38;3.10;;;3.80;99.90;;;;;;5089297;28;20581;-75
2022/01/31 07:29:44;;;;;;;7.60;3.15;;;3.80;99.90;;;;;;5074719;28;20202;-75
2022/01/31 07:32:11;;;;;;;7.43;3.80;;;3.80;99.90;;;;;;5071798;28;20843;-75
2022/01/31 07:34:40;;;;;;;4.93;2.58;;;3.80;99.90;;;;;;5083913;28;20539;-75
2022/01/31 07:37:07;;;;;;;4.65;2.75;;;3.80;99.90;;;;;;5076706;28;20214;-75
2022/01/31 07:39:34;;;;;;;6.82;2.85;;;3.80;99.90;;;;;;5077979;28;20193;-75
2022/01/31 07:42:01;;;;;;;5.82;2.92;;;3.80;99.90;;;;;;5087268;28;20287;-75
2022/01/31 07:44:30;;;;;;;4.03;2.58;;;3.70;99.90;;;;;;5084337;28;20225;-75
2022/01/31 07:46:57;;;;;;;2.97;2.38;;;3.70;99.90;;;;;;5075526;28;20207;-75
2022/01/31 07:49:24;;;;;;;4.68;2.20;;;3.70;99.90;;;;;;5089267;28;20641;-75
2022/01/31 07:51:52;;;;;;;4.53;2.10;;;3.70;99.90;;;;;;5091558;28;20223;-75
2022/01/31 07:54:20;;;;;;;4.05;2.40;;;3.70;99.90;;;;;;5087662;28;20255;-75
2022/01/31 07:56:47;;;;;;;8.88;2.80;;;3.70;99.90;;;;;;5082950;28;20202;-77
2022/01/31 07:59:14;;;;;;;3.47;1.70;;;3.70;99.90;;;;;;5094127;28;20778;-75
2022/01/31 08:01:42;;;;;;;3.13;2.35;;;3.80;99.90;;;;;;5100271;28;20217;-75
2022/01/31 08:04:10;;;;;;;3.80;2.13;;;3.80;99.90;;;;;;5080711;28;20565;-75
2022/01/31 08:06:37;;;;;;;2.20;2.00;;;3.80;99.90;;;;;;5080571;28;20652;-74
2022/01/31 08:09:04;;;;;;;4.45;2.00;;;3.80;99.90;;;;;;5085145;28;20656;-75
2022/01/31 08:11:33;;;;;;;2.08;1.70;;;3.90;99.90;;;;;;5085952;28;20708;-75
2022/01/31 08:14:05;;;;;;;1.45;1.20;;;3.90;99.90;;;;;;5087033;28;20202;-75
2022/01/31 08:16:33;;;;;;;1.52;1.10;;;4.00;99.90;;;;;;5088113;28;20202;-75
2022/01/31 08:19:02;;;;;;;0.90;0.90;;;4.10;99.90;;;;;;5092899;28;21369;-75
2022/01/31 08:21:29;;;;;;;1.67;1.30;;;4.10;99.90;;;;;;5087827;28;20228;-75
2022/01/31 08:23:56;;;;;;;0.90;0.80;;;4.20;99.90;;;;;;5078370;28;20192;-75
2022/01/31 08:26:23;;;;;;;1.45;1.35;;;4.20;99.90;;;;;;5079473;28;20341;-76
2022/01/31 08:28:55;;;;;;;1.15;1.00;;;4.30;99.90;;;;;;5073533;28;20200;-73
2022/01/31 08:31:28;;;;;;;1.10;1.00;;;4.30;99.90;;;;;;5082222;28;20276;-74
2022/01/31 08:34:06;;;;;;;1.30;0.80;;;4.30;99.90;;;;;;5073943;28;20204;-73
2022/01/31 08:36:36;;;;;;;1.15;1.00;;;4.30;99.90;;;;;;5073231;28;20286;-73
2022/01/31 08:39:08;;;;;;;1.25;1.15;;;4.40;99.90;;;;;;5075143;28;20286;-74
2022/01/31 08:41:37;;;;;;;1.30;1.20;;;4.40;99.90;;;;;;5073290;28;20225;-73
2022/01/31 08:44:04;;;;;;;2.10;2.00;;;4.40;99.90;;;;;;5075531;28;20252;-73
2022/01/31 08:46:32;;;;;;;2.03;1.40;;;4.40;99.90;;;;;;5083381;28;20203;-73
2022/01/31 08:48:59;;;;;;;2.88;1.52;;;4.50;99.90;;;;;;5086577;28;20203;-73
2022/01/31 08:51:26;;;;;;;2.13;1.50;;;4.50;99.90;;;;;;5093076;28;20301;-74
2022/01/31 08:53:55;;;;;;;2.10;1.77;;;4.50;99.90;;;;;;5094629;28;20205;-73
2022/01/31 08:56:22;;;;;;;2.35;1.90;;;4.60;99.90;;;;;;5090735;28;20696;-74
2022/01/31 08:58:49;;;;;;;2.03;1.77;;;4.60;99.90;;;;;;5085566;28;20201;-74
2022/01/31 09:01:19;;;;;;;2.05;1.90;;;4.60;99.90;;;;;;5087218;28;20219;-72
2022/01/31 09:04:03;;;;;;;1.80;1.70;;;4.70;99.90;;;;;;5077265;28;20782;-73
2022/01/31 09:06:33;;;;;;;1.60;1.50;;;4.70;99.90;;;;;;5073532;28;20315;-73
2022/01/31 09:09:03;;;;;;;2.05;1.70;;;4.90;99.90;;;;;;5081203;28;20716;-73
2022/01/31 09:11:31;;;;;;;3.03;1.63;;;5.30;99.90;;;;;;5084344;28;21587;-74
2022/01/31 09:13:58;;;;;;;1.50;1.40;;;5.90;99.90;;;;;;5078423;28;20246;-73
2022/01/31 09:16:25;;;;;;;1.40;1.30;;;6.70;99.90;;;;;;5075689;28;20211;-73
2022/01/31 09:18:52;;;;;;;1.60;1.50;;;7.30;99.90;;;;;;5073726;28;20200;-73
2022/01/31 09:21:19;;;;;;;2.38;1.50;;;7.40;99.90;;;;;;5078263;28;20586;-73
2022/01/31 09:23:51;;;;;;;1.90;1.40;;;7.10;99.90;;;;;;5079281;28;20223;-73
2022/01/31 09:26:23;;;;;;;1.35;1.25;;;6.80;99.90;;;;;;5072480;28;20323;-73
2022/01/31 09:28:51;;;;;;;2.17;1.58;;;6.60;99.90;;;;;;5074077;28;20231;-73
2022/01/31 09:31:18;;;;;;;2.35;1.70;;;6.40;99.90;;;;;;5074102;28;21113;-73
2022/01/31 09:33:45;;;;;;;1.35;1.20;;;6.40;99.90;;;;;;5100960;28;20194;-73
2022/01/31 09:36:12;;;;;;;2.00;1.48;;;6.30;99.90;;;;;;5094140;28;20221;-73
2022/01/31 09:38:40;;;;;;;1.40;1.30;;;6.40;99.90;;;;;;5091278;28;20252;-73
2022/01/31 09:41:09;;;;;;;3.28;1.40;;;6.50;99.90;;;;;;5071604;28;20227;-73
2022/01/31 09:49:02;;;;;;;2.10;1.50;;;6.20;99.90;;;;;;5086913;28;20213;-73
2022/01/31 09:51:29;;;;;;;2.10;1.67;;;6.00;99.90;;;;;;5087451;28;20326;-73
2022/01/31 09:53:59;;;;;;;2.30;1.50;;;6.00;99.90;;;;;;5089779;28;20203;-73
2022/01/31 09:56:29;;;;;;;1.55;1.45;;;5.90;99.90;;;;;;5071279;28;20611;-72
2022/01/31 09:58:59;;;;;;;3.65;2.13;;;5.80;99.90;;;;;;5090884;28;20196;-73
2022/01/31 10:01:28;;;;;;;2.00;1.50;;;5.70;99.90;;;;;;5078976;28;20230;-73
2022/01/31 10:03:59;;;;;;;3.90;2.10;;;5.60;99.90;;;;;;5085959;28;20223;-73
2022/01/31 10:06:27;;;;;;;3.22;1.83;;;5.60;99.90;;;;;;5088185;28;20249;-73
2022/01/31 10:09:04;;;;;;;1.80;1.70;;;5.60;99.90;;;;;;5083227;28;20200;-73
2022/01/31 10:11:40;;;;;;;2.22;2.00;;;5.50;99.90;;;;;;5089169;28;20226;-73
2022/01/31 10:17:03;;;;;;;2.55;2.35;;;5.60;99.90;;;;;;5071617;28;20659;-73
2022/01/31 10:19:30;;;;;;;3.45;2.03;;;5.70;99.90;;;;;;5070938;28;20251;-73
2022/01/31 10:22:00;;;;;;;4.63;2.50;;;5.60;99.90;;;;;;5074376;28;20216;-73
2022/01/31 10:24:28;;;;;;;6.65;2.58;;;5.60;99.90;;;;;;5082497;28;20189;-73
2022/01/31 10:26:55;;;;;;;2.88;1.63;;;5.60;99.90;;;;;;5072100;28;20682;-72
2022/01/31 10:29:25;;;;;;;2.40;2.00;;;5.50;99.90;;;;;;5079941;28;20206;-73
2022/01/31 10:31:58;;;;;;;3.72;2.40;;;5.60;99.90;;;;;;5086567;28;20215;-73
2022/01/31 10:34:27;;;;;;;4.40;2.10;;;5.60;99.90;;;;;;5083594;28;20652;-73
2022/01/31 10:36:54;;;;;;;3.65;2.20;;;5.60;99.90;;;;;;5070435;28;20203;-81
2022/01/31 10:45:34;;;;;;;2.20;1.90;;;5.60;99.90;;;;;;5079175;28;20208;-73
2022/01/31 10:54:15;;;;;;;2.53;1.70;;;5.50;99.90;;;;;;5074707;28;20282;-73
2022/01/31 10:56:45;;;;;;;2.58;2.13;;;5.50;99.90;;;;;;5072378;28;20223;-73
2022/01/31 10:59:14;;;;;;;3.35;2.00;;;5.40;99.90;;;;;;5095575;28;20212;-73
2022/01/31 11:01:43;;;;;;;3.17;1.40;;;5.50;99.90;;;;;;5086571;28;20247;-74
2022/01/31 11:04:12;;;;;;;3.95;2.10;;;5.50;99.90;;;;;;5084979;28;20230;-74
2022/01/31 11:06:41;;;;;;;2.45;1.63;;;5.60;99.90;;;;;;5079205;28;20280;-74
2022/01/31 11:09:09;;;;;;;4.07;2.03;;;5.60;99.90;;;;;;5079661;28;20202;-73
2022/01/31 11:11:38;;;;;;;3.60;2.25;;;5.70;99.90;;;;;;5080663;28;20266;-74
2022/01/31 11:14:09;;;;;;;3.90;2.10;;;5.70;99.90;;;;;;5076479;28;20200;-74
2022/01/31 11:16:37;;;;;;;3.58;2.10;;;5.70;99.90;;;;;;5076728;28;20192;-73
2022/01/31 11:19:08;;;;;;;1.85;1.75;;;5.80;99.90;;;;;;5074516;28;20524;-74
2022/01/31 11:21:38;;;;;;;4.75;1.77;;;5.80;99.90;;;;;;5074231;28;20220;-73
2022/01/31 11:24:16;;;;;;;3.22;2.00;;;5.80;99.90;;;;;;5075707;28;20205;-74
2022/01/31 11:26:47;;;;;;;2.83;1.70;;;5.90;99.90;;;;;;5081340;28;20210;-73
2022/01/31 11:29:14;;;;;;;2.58;1.60;;;6.00;99.90;;;;;;5091510;28;20283;-74
2022/01/31 11:31:42;;;;;;;1.85;1.63;;;6.00;99.90;;;;;;5081704;28;20307;-73
2022/01/31 11:34:13;;;;;;;1.95;1.40;;;6.00;99.90;;;;;;5074809;28;20200;-73
2022/01/31 11:36:41;;;;;;;2.70;1.80;;;5.90;99.90;;;;;;5080411;28;20279;-73
2022/01/31 11:39:11;;;;;;;2.30;1.60;;;5.80;99.90;;;;;;5081544;28;20196;-73
2022/01/31 11:41:44;;;;;;;2.60;1.27;;;5.70;99.90;;;;;;5084926;28;20592;-73
2022/01/31 11:44:18;;;;;;;3.20;1.58;;;5.60;99.90;;;;;;5079860;28;20560;-74
2022/01/31 11:46:45;;;;;;;3.40;1.60;;;5.60;99.90;;;;;;5094081;28;20236;-73
2022/01/31 11:49:15;;;;;;;4.13;1.80;;;5.40;99.90;;;;;;5085649;28;20565;-73
2022/01/31 11:52:06;;;;;;;4.03;1.48;;;5.40;99.90;;;;;;5086692;28;20223;-74
2022/01/31 11:54:37;;;;;;;2.97;1.95;;;5.30;99.90;;;;;;5082741;28;20198;-73
2022/01/31 11:57:14;;;;;;;1.23;1.10;;;5.30;99.90;;;;;;5091168;28;20202;-73
2022/01/31 11:59:42;;;;;;;5.03;1.60;;;5.30;99.90;;;;;;5090462;28;20223;-73
2022/01/31 12:02:14;;;;;;;3.90;1.48;;;5.30;99.90;;;;;;5086814;28;20215;-73
2022/01/31 12:04:49;;;;;;;2.22;1.40;;;5.30;99.90;;;;;;5079419;28;20188;-73
2022/01/31 12:07:36;;;;;;;2.70;1.23;;;5.30;99.90;;;;;;5085994;28;20678;-73
2022/01/31 12:10:04;;;;;;;4.15;1.40;;;5.40;99.90;;;;;;5080779;28;20213;-73
2022/01/31 12:12:40;;;;;;;2.70;1.13;;;5.40;99.90;;;;;;5088719;28;20199;-73
2022/01/31 12:15:46;;;;;;;3.45;1.80;;;5.40;99.90;;;;;;5085820;28;20195;-73
2022/01/31 12:18:44;;;;;;;2.33;1.40;;;5.40;99.90;;;;;;5077164;28;20192;-74
2022/01/31 12:24:00;;;;;;;1.80;1.30;;;5.50;99.90;;;;;;5078987;28;20340;-73
2022/01/31 12:26:35;;;;;;;2.10;1.30;;;5.60;99.90;;;;;;5082053;28;20250;-74
2022/01/31 12:29:08;;;;;;;3.47;1.20;;;5.60;99.90;;;;;;5096778;28;20244;-74
2022/01/31 12:31:38;;;;;;;2.63;1.50;;;5.60;99.90;;;;;;5087321;28;20267;-74
2022/01/31 12:34:32;;;;;;;3.92;1.38;;;5.50;99.90;;;;;;5094071;28;20192;-74
2022/01/31 12:37:02;;;;;;;7.10;1.80;;;5.50;99.90;;;;;;5085178;28;20200;-74
2022/01/31 12:40:01;;;;;;;4.65;2.10;;;5.40;99.90;;;;;;5086646;28;20199;-74
2022/01/31 12:43:10;;;;;;;2.53;1.83;;;5.30;99.90;;;;;;5083395;28;20195;-74
2022/01/31 12:46:05;;;;;;;2.25;1.13;;;5.20;99.90;;;;;;5078954;28;20243;-74
2022/01/31 12:48:32;;;;;;;2.30;1.60;;;5.10;99.90;;;;;;5069855;28;20206;-73
2022/01/31 12:51:02;;;;;;;3.00;1.55;;;5.10;99.90;;;;;;5092234;28;20233;-74
2022/01/31 12:54:00;;;;;;;2.03;1.40;;;5.00;99.90;;;;;;5088276;28;20284;-74
2022/01/31 12:56:30;;;;;;;1.70;1.20;;;5.10;99.90;;;;;;5087091;28;20203;-75
2022/01/31 12:59:09;;;;;;;2.38;1.40;;;5.10;99.90;;;;;;5082920;28;20196;-74
2022/01/31 13:01:39;;;;;;;3.45;1.40;;;5.00;99.90;;;;;;5080379;28;21577;-74
2022/01/31 13:04:08;;;;;;;2.60;1.48;;;5.10;99.90;;;;;;5086377;28;20211;-75
2022/01/31 13:06:41;;;;;;;3.75;1.58;;;5.10;99.90;;;;;;5079440;28;20291;-75
2022/01/31 13:09:19;;;;;;;3.70;1.73;;;5.00;99.90;;;;;;5089836;28;20560;-74
2022/01/31 13:11:49;;;;;;;4.75;1.80;;;4.90;99.90;;;;;;5071885;28;20224;-75
2022/01/31 13:14:19;;;;;;;2.70;1.58;;;4.80;99.90;;;;;;5086857;28;20192;-74
2022/01/31 13:16:58;;;;;;;4.30;1.65;;;4.80;99.90;;;;;;5078646;28;20302;-75
2022/01/31 13:19:26;;;;;;;3.55;1.67;;;4.70;99.90;;;;;;5088531;28;20195;-74
2022/01/31 13:21:55;;;;;;;4.13;1.55;;;4.70;99.90;;;;;;5086080;28;20211;-74
2022/01/31 13:24:33;;;;;;;4.68;1.98;;;4.70;99.90;;;;;;5081555;28;20188;-74
2022/01/31 13:27:02;;;;;;;4.60;2.50;;;4.70;99.90;;;;;;5082418;28;20227;-74
2022/01/31 13:29:35;;;;;;;2.97;1.25;;;4.60;99.90;;;;;;5085462;28;20715;-74
2022/01/31 13:32:17;;;;;;;3.92;2.30;;;4.70;99.90;;;;;;5085594;28;20279;-75